Flight Track Log - Related Links

Times and Time Zones

All times are in EDT time to prevent confusion due to time zone crossing. See the N851MA flight status page for this flight to view local times or setup timezone preferences in your user account.

Time Position Orientation Groundspeed Altitude Reporting Facility
EDT Latitude Longitude Course Direction KTS MPH feet Rate Location/Type
Sun 01:43:58 PM 44.6444 -109.0356 281° West 183 211 9,100  Level Salt Lake Center
Sun 01:45:00 PM 44.6467 -109.1033 273° West 177 204 10,600 1,548 Climbing Salt Lake Center
Sun 01:46:02 PM 44.6547 -109.1714 279° West 176 203 12,300 1,597 Climbing Salt Lake Center
Sun 01:47:04 PM 44.6639 -109.2408 281° West 179 206 13,900 1,548 Climbing Salt Lake Center
Sun 01:48:06 PM 44.6853 -109.3147 292° West 171 197 15,500 1,452 Climbing Salt Lake Center
Sun 01:49:00 PM 44.5631 -109.4086 281° West  Level FlightAware Approximate
Sun 01:49:08 PM 44.7153 -109.3747 305° West 182 209 16,900  Level Salt Lake Center
Sun 01:50:10 PM 44.7333 -109.4367 292° West 178 205 17,900 1,113 Climbing Salt Lake Center
Sun 01:51:12 PM 44.7386 -109.5042 276° West 174 200 19,200 1,161 Climbing Salt Lake Center
Sun 01:52:14 PM 44.7444 -109.5742 277° West 180 207 20,300 1,056 Climbing Salt Lake Center
Sun 01:53:17 PM 44.7514 -109.6458 278° West 184 212 21,400 1,152 Climbing Salt Lake Center
Sun 01:54:19 PM 44.7583 -109.7344 276° West 191 220 22,700 1,210 Climbing Salt Lake Center
Sun 01:55:21 PM 44.7661 -109.8081 278° West 191 220 23,900 1,016 Climbing Salt Lake Center
Sun 01:56:23 PM 44.7744 -109.8878 278° West 197 227 24,800 823 Climbing Salt Lake Center
Sun 01:57:25 PM 44.7822 -109.9608 279° West 198 228 25,600 774 Climbing Salt Lake Center
Sun 01:58:27 PM 44.7897 -110.0475 277° West 200 230 26,400 726 Climbing Salt Lake Center
Sun 01:59:29 PM 44.7969 -110.1222 278° West 201 231 27,100 677 Climbing Salt Lake Center
Sun 02:00:31 PM 44.8044 -110.2119 277° West 208 239 27,800 581 Climbing Salt Lake Center
Sun 02:01:33 PM 44.8131 -110.2847 279° West 200 230 28,300 581 Climbing Salt Lake Center
Sun 02:02:35 PM 44.8194 -110.3744 276° West 205 236 29,000 629 Climbing Salt Lake Center
Sun 02:03:37 PM 44.8272 -110.4506 278° West 205 236 29,600 339 Climbing Salt Lake Center
Sun 02:04:39 PM 44.8339 -110.5403 276° West 207 238 29,700 48 Climbing Salt Lake Center
Sun 02:05:41 PM 44.8397 -110.6231 276° West 218 251 29,700  Level Salt Lake Center
Sun 02:06:43 PM 44.8483 -110.7125 278° West 234 269 29,700 145 Level Salt Lake Center
Sun 02:07:45 PM 44.8586 -110.8172 278° West 241 277 30,000 145 Climbing Salt Lake Center
Sun 02:08:47 PM 44.8653 -110.9064 276° West 241 277 30,000  Level Salt Lake Center
Sun 02:09:49 PM 44.8747 -111.0139 277° West 246 283 30,000  Level Salt Lake Center
Sun 02:10:51 PM 44.8825 -111.1056 277° West 248 285 30,000  Level Salt Lake Center
Sun 02:11:53 PM 44.8917 -111.2133 277° West 249 287 30,000  Level Salt Lake Center
Sun 02:12:55 PM 44.8983 -111.3069 276° West 251 289 30,000  Level Salt Lake Center
Sun 02:13:57 PM 44.9078 -111.4153 277° West 252 290 30,000  Level Salt Lake Center
Sun 02:14:59 PM 44.9150 -111.5083 276° West 250 288 30,000  Level Salt Lake Center
Sun 02:16:01 PM 44.9233 -111.6164 276° West 250 288 30,000  Level Salt Lake Center
Sun 02:17:03 PM 44.9311 -111.7097 277° West 250 288 30,000  Level Salt Lake Center
Sun 02:18:05 PM 44.9392 -111.8181 276° West 250 288 30,000  Level Salt Lake Center
Sun 02:19:07 PM 44.9453 -111.9103 275° West 248 285 30,000  Level Salt Lake Center
Sun 02:20:09 PM 44.9536 -112.0186 276° West 250 288 30,000  Level Salt Lake Center
Sun 02:21:11 PM 44.9600 -112.1125 276° West 250 288 30,000  Level Salt Lake Center
Sun 02:22:13 PM 44.9686 -112.2217 276° West 250 288 30,000  Level Salt Lake Center
Sun 02:23:15 PM 44.9747 -112.3156 275° West 251 289 30,000  Level Salt Lake Center
Sun 02:24:17 PM 44.9844 -112.4286 277° West 259 298 30,000  Level Salt Lake Center
Sun 02:25:19 PM 44.9906 -112.5239 275° West 256 295 30,000  Level Salt Lake Center
Sun 02:26:21 PM 44.9978 -112.6364 275° West 257 296 30,000  Level Salt Lake Center
Sun 02:27:23 PM 45.0047 -112.7333 276° West 259 298 30,000  Level Salt Lake Center
Sun 02:28:25 PM 45.0136 -112.8464 276° West 259 298 30,000  Level Salt Lake Center
Sun 02:29:27 PM 45.0186 -112.9422 274° West 257 296 30,000  Level Salt Lake Center
Sun 02:30:30 PM 45.0267 -113.0542 276° West 256 295 30,000  Level Salt Lake Center
Sun 02:31:32 PM 45.0336 -113.1494 276° West 255 293 30,000  Level Salt Lake Center
Sun 02:32:34 PM 45.0381 -113.2469 274° West 258 297 30,000  Level Salt Lake Center
Sun 02:33:36 PM 45.0461 -113.3583 276° West 256 295 30,000  Level Salt Lake Center
Sun 02:34:38 PM 45.0517 -113.4550 275° West 258 297 30,000  Level Salt Lake Center
Sun 02:35:40 PM 45.0583 -113.5667 275° West 256 295 30,000  Level Salt Lake Center
Sun 02:36:42 PM 45.0661 -113.6619 277° West 255 293 30,000  Level Salt Lake Center
Sun 02:37:44 PM 45.0728 -113.7725 275° West 253 291 30,000  Level Salt Lake Center
Sun 02:38:46 PM 45.0767 -113.8703 273° West 257 296 30,000  Level Salt Lake Center
Sun 02:39:49 PM 45.0847 -113.9819 276° West 253 291 30,000  Level Salt Lake Center
Sun 02:40:50 PM 45.0900 -114.0783 274° West 255 293 30,000  Level Salt Lake Center
Sun 02:41:52 PM 45.0961 -114.1911 274° West 257 296 30,000  Level Salt Lake Center
Sun 02:42:54 PM 45.1000 -114.2872 273° West 256 295 30,000  Level Salt Lake Center
Sun 02:43:56 PM 45.1058 -114.3850 275° West 260 299 30,000  Level Salt Lake Center
Sun 02:44:58 PM 45.1136 -114.5000 276° West 263 303 30,000  Level Salt Lake Center
Sun 02:46:00 PM 45.1175 -114.5972 273° West 260 299 30,000  Level Salt Lake Center
Sun 02:47:02 PM 45.1236 -114.7097 274° West 257 296 30,000  Level Salt Lake Center
Sun 02:48:04 PM 45.1289 -114.8064 274° West 257 296 30,000  Level Salt Lake Center
Sun 02:49:06 PM 45.1339 -114.9214 274° West 261 300 30,000  Level Salt Lake Center
Sun 02:50:08 PM 45.1381 -115.0178 274° West 258 297 30,000  Level Salt Lake Center
Sun 02:51:10 PM 45.1436 -115.1317 274° West 259 298 30,000  Level Salt Lake Center
Sun 02:52:12 PM 45.1497 -115.2308 275° West 263 303 30,000  Level Salt Lake Center
Sun 02:53:14 PM 45.1542 -115.3469 273° West 265 305 30,000  Level Salt Lake Center
Sun 02:54:16 PM 45.1592 -115.4450 274° West 263 303 30,000  Level Salt Lake Center
Sun 02:55:19 PM 45.1639 -115.5617 273° West 265 305 30,000  Level Salt Lake Center
Sun 02:56:13 PM 45.1678 -115.6444 274° West 263 303 30,000  Level Seattle Center
Sun 02:57:14 PM 45.1733 -115.7594 274° West 262 302 30,000  Level Seattle Center
Sun 02:58:16 PM 45.1761 -115.8583 272° West 263 303 30,000  Level Seattle Center
Sun 02:59:17 PM 45.1819 -115.9739 274° West 264 304 30,000  Level Seattle Center
Sun 03:00:19 PM 45.1856 -116.0731 273° West 264 304 30,000  Level Seattle Center
Sun 03:01:20 PM 45.1892 -116.1722 273° West 264 304 30,000  Level Seattle Center
Sun 03:02:22 PM 45.1922 -116.2878 272° West 264 304 30,000  Level Seattle Center
Sun 03:03:23 PM 45.1972 -116.3872 274° West 264 304 30,000  Level Seattle Center
Sun 03:04:24 PM 45.2008 -116.5000 273° West 259 298 30,000  Level Seattle Center
Sun 03:05:26 PM 45.2039 -116.6000 273° West 263 303 30,000  Level Seattle Center
Sun 03:06:27 PM 45.2075 -116.7189 273° West 268 308 30,000  Level Seattle Center
Sun 03:07:29 PM 45.2103 -116.8181 272° West 265 305 30,000  Level Seattle Center
Sun 03:08:30 PM 45.2144 -116.9181 273° West 265 305 30,000  Level Seattle Center
Sun 03:09:32 PM 45.2172 -117.0342 272° West 265 305 30,000  Level Seattle Center
Sun 03:10:33 PM 45.2197 -117.1336 272° West 264 304 30,000  Level Seattle Center
Sun 03:11:35 PM 45.2228 -117.2508 272° West 267 307 30,000  Level Seattle Center
Sun 03:12:36 PM 45.2264 -117.3508 273° West 267 307 30,000  Level Seattle Center
Sun 03:13:38 PM 45.2292 -117.4586 272° West 261 300 30,000  Level Seattle Center
Sun 03:14:39 PM 45.2317 -117.5631 272° West 264 304 30,000  Level Seattle Center
Sun 03:15:41 PM 45.2344 -117.6711 272° West 273 314 30,000  Level Seattle Center
Sun 03:16:42 PM 45.2372 -117.7736 272° West 264 304 30,000  Level Seattle Center
Sun 03:17:44 PM 45.2394 -117.8814 272° West 272 313 30,000  Level Seattle Center
Sun 03:18:45 PM 45.2428 -117.9839 273° West 262 302 30,000  Level Seattle Center
Sun 03:19:47 PM 45.2428 -118.0889 270° West 267 307 30,000  Level Seattle Center
Sun 03:20:48 PM 45.2467 -118.2169 273° West 270 311 30,000  Level Seattle Center
Sun 03:21:50 PM 45.2494 -118.3233 272° West 271 312 30,000  Level Seattle Center
Sun 03:22:51 PM 45.2514 -118.4278 272° West 267 307 30,000  Level Seattle Center
Sun 03:23:53 PM 45.2522 -118.5331 271° West 268 308 30,000  Level Seattle Center
Sun 03:24:54 PM 45.2550 -118.6383 272° West 268 308 30,000  Level Seattle Center
Sun 03:25:56 PM 45.2569 -118.7447 272° West 270 311 30,000  Level Seattle Center
Sun 03:26:57 PM 45.2572 -118.8508 270° West 269 310 30,000  Level Seattle Center
Sun 03:27:59 PM 45.2597 -118.9564 272° West 268 308 30,000  Level Seattle Center
Sun 03:29:00 PM 45.2614 -119.0836 271° West 269 310 30,000  Level Seattle Center
Sun 03:30:01 PM 45.2625 -119.1900 271° West 272 313 30,000  Level Seattle Center
Sun 03:31:03 PM 45.2639 -119.2981 271° West 273 314 30,000 -49 Level Seattle Center
Sun 03:32:04 PM 45.2650 -119.4056 271° West 275 316 29,900 -98 Descending Seattle Center
Sun 03:33:06 PM 45.2681 -119.5139 272° West 276 318 29,800 -49 Descending Seattle Center
Sun 03:34:07 PM 45.2842 -119.6206 282° West 277 319 29,800 -390 Level Seattle Center
Sun 03:35:09 PM 45.2953 -119.7311 278° West 284 327 29,000 -927 Descending Seattle Center
Sun 03:36:10 PM 45.3144 -119.8703 281° West 298 343 27,900 -934 Descending Seattle Center
Sun 03:37:11 PM 45.3292 -119.9881 280° West 303 349 27,100 -829 Descending Seattle Center
Sun 03:38:13 PM 45.3442 -120.1069 280° West 307 353 26,200 -878 Descending Seattle Center
Sun 03:39:14 PM 45.3586 -120.2244 280° West 305 351 25,300 -885 Descending Seattle Center
Sun 03:40:15 PM 45.3719 -120.3406 279° West 301 346 24,400 -634 Descending Seattle Center
Sun 03:41:17 PM 45.3858 -120.4533 280° West 294 338 24,000 -195 Descending Seattle Center
Sun 03:42:18 PM 45.4000 -120.5603 281° West 283 326 24,000  Level Seattle Center
Sun 03:43:19 PM 45.4125 -120.6872 278° West 274 315 24,000 49 Level Seattle Center
Sun 03:44:21 PM 45.4267 -120.7928 281° West 273 314 24,100  Climbing Seattle Center
Sun 03:45:22 PM 45.4392 -120.8989 280° West 273 314 24,000 -49 Descending Seattle Center
Sun 03:46:24 PM 45.4508 -121.0078 279° West 276 318 24,000 -488 Level Seattle Center
Sun 03:47:25 PM 45.4636 -121.1186 279° West 282 325 23,000 -1,082 Descending Seattle Center
Sun 03:48:26 PM 45.4772 -121.2328 280° West 292 336 21,800 -1,366 Descending Seattle Center
Sun 03:49:28 PM 45.4897 -121.3450 279° West 290 334 20,200 -1,938 Descending Seattle Center
Sun 03:50:02 PM 45.4994 -121.4292 279° West 284 327 18,700 -2,067 Descending Seattle Center
Sun 03:51:27 PM 45.5156 -121.5769 279° West 274 315 16,100 -1,110 Descending Seattle Center
Sun 03:52:28 PM 45.5286 -121.6797 280° West 233 268 16,000 -98 Descending Seattle Center
Sun 03:54:00 PM 45.5353 -121.8217 284° West  Level FlightAware Approximate
Sun 04:01:00 PM 45.6271 -122.4864 199° South  Level FlightAware Approximate
Sun 04:02:00 PM 45.5647 -122.5265 208° Southwest  Level FlightAware Approximate
Sun 04:03:00 PM 45.5039 -122.5721 208° Southwest  Level FlightAware Approximate
Sun 04:04:00 PM 45.4445 -122.6208 208° Southwest  Level FlightAware Approximate
Sun 04:05:00 PM 45.3838 -122.6663 208° Southwest  Level FlightAware Approximate
Sun 04:06:00 PM 45.3206 -122.7043 203° Southwest  Level FlightAware Approximate
Sun 04:07:00 PM 45.2591 -122.7474 208° Southwest  Level FlightAware Approximate
Sun 04:08:00 PM 45.2471 -122.7701 208° Southwest  Level Estimated
Sun 04:09:00 PM 45.2471 -122.7701 208° Southwest  Level Estimated
Sun 04:10:00 PM 45.2471 -122.7701 208° Southwest  Level Estimated
Sun 04:11:00 PM 45.2471 -122.7701 208° Southwest  Level Estimated
Sun 04:12:00 PM 45.2471 -122.7701 208° Southwest  Level Estimated
Sun 04:13:00 PM 45.2471 -122.7701 208° Southwest  Level Estimated
Sun 04:14:00 PM 45.2471 -122.7701 208° Southwest  Level Estimated
Sun 04:15:00 PM 45.2471 -122.7701 208° Southwest  Level Estimated
Sun 04:16:00 PM 45.2471 -122.7701 208° Southwest  Level Estimated
Sun 04:17:00 PM 45.2471 -122.7701 208° Southwest  Level Estimated
Sun 04:18:00 PM 45.2471 -122.7701 208° Southwest  Level Estimated
Sun 04:19:00 PM 45.2471 -122.7701 208° Southwest  Level Estimated
Sun 04:20:00 PM 45.2471 -122.7701 208° Southwest  Level Estimated
Sun 04:21:00 PM 45.2471 -122.7701 208° Southwest  Level Estimated
Sun 04:22:00 PM 45.2471 -122.7701 208° Southwest  Level Estimated
Sun 04:23:00 PM 45.2471 -122.7701 208° Southwest  Level Estimated
Sun 04:24:00 PM 45.2471 -122.7701 208° Southwest  Level Estimated
Sun 04:25:00 PM 45.2471 -122.7701 208° Southwest  Level Estimated
Sun 04:26:00 PM 45.2471 -122.7701 208° Southwest  Level Estimated
Sun 04:27:00 PM 45.2471 -122.7701 208° Southwest  Level Estimated

Login

Don't have an account? Register now (free) for customized features, flight alerts, and more!